Time;durP1;ratioP1;P1;durP2;ratioP2;P2;SDS_P1;SDS_P2;PMS_P1;PMS_P2;Temp;Humidity;BMP_temperature;BMP_pressure;BME280_temperature;BME280_humidity;BME280_pressure;Samples;Min_cycle;Max_cycle;Signal;HPM_P1;HPM_P2
2023/08/30 00:00:37;;;;;;;1.50;1.40;;;;;;;13.82;97.03;96800.84;6327452;28;20323;-51
2023/08/30 00:03:39;;;;;;;2.53;1.33;;;;;;;13.87;96.51;96805.38;6327530;28;20228;-51
2023/08/30 00:06:41;;;;;;;1.30;1.17;;;;;;;13.85;97.63;96804.88;6307653;28;20363;-51
2023/08/30 00:09:44;;;;;;;1.40;1.30;;;;;;;13.98;95.75;96811.41;6326217;28;20268;-52
2023/08/30 00:12:46;;;;;;;1.30;1.20;;;;;;;13.94;95.28;96805.84;6327304;28;20232;-51
2023/08/30 00:15:48;;;;;;;2.60;1.40;;;;;;;13.98;95.38;96798.81;6322224;28;20262;-49
2023/08/30 00:18:50;;;;;;;1.20;1.10;;;;;;;13.87;95.03;96787.41;6331027;28;20359;-50
2023/08/30 00:21:53;;;;;;;1.40;1.30;;;;;;;13.96;95.28;96800.19;6323642;28;20213;-49
2023/08/30 00:24:55;;;;;;;1.83;1.10;;;;;;;13.90;95.34;96792.22;6326652;28;20339;-51
2023/08/30 00:27:57;;;;;;;1.10;1.00;;;;;;;13.88;97.21;96797.03;6327812;28;20625;-51
2023/08/30 00:31:00;;;;;;;1.60;1.50;;;;;;;13.94;95.91;96787.88;6323081;28;20221;-48
2023/08/30 00:34:02;;;;;;;1.23;1.13;;;;;;;14.07;94.58;96793.63;6327883;28;20779;-50
2023/08/30 00:37:04;;;;;;;1.37;1.27;;;;;;;14.02;94.54;96783.78;6299033;28;20556;-52
2023/08/30 00:40:07;;;;;;;1.60;1.50;;;;;;;13.87;96.30;96797.34;6283438;28;20230;-50
2023/08/30 00:43:09;;;;;;;1.23;1.13;;;;;;;13.86;97.49;96807.25;6297864;28;20233;-51
2023/08/30 00:46:13;;;;;;;1.40;1.30;;;;;;;13.85;97.47;96804.88;6280297;28;20743;-48
2023/08/30 00:49:15;;;;;;;1.53;1.43;;;;;;;13.96;95.52;96811.69;6282463;28;20230;-51
2023/08/30 00:52:18;;;;;;;1.33;1.23;;;;;;;13.95;95.58;96810.09;6301146;28;20719;-50
2023/08/30 00:55:20;;;;;;;1.33;1.20;;;;;;;13.93;95.68;96814.94;6281625;28;20226;-50
2023/08/30 00:58:22;;;;;;;1.40;1.30;;;;;;;13.98;95.17;96809.53;6270355;28;20233;-49
2023/08/30 01:01:26;;;;;;;1.30;1.13;;;;;;;14.04;94.30;96815.63;6300278;28;20242;-50
2023/08/30 01:04:28;;;;;;;1.70;1.33;;;;;;;13.90;96.03;96824.34;6300196;28;20317;-49
2023/08/30 01:07:30;;;;;;;1.87;1.27;;;;;;;13.93;95.31;96820.28;6298646;28;20242;-49
2023/08/30 01:11:13;;;;;;;1.57;1.40;;;;;;;13.87;96.69;96830.25;6301316;28;20363;-50
2023/08/30 01:14:21;;;;;;;1.20;1.10;;;;;;;13.90;96.66;96831.59;6264973;28;20314;-50
2023/08/30 01:17:24;;;;;;;1.40;1.30;;;;;;;13.88;97.16;96833.72;6288937;28;20314;-51
2023/08/30 01:20:28;;;;;;;1.03;1.03;;;;;;;13.86;97.56;96830.53;6281314;28;20253;-52
2023/08/30 01:23:42;;;;;;;2.40;1.00;;;;;;;13.86;98.23;96825.19;6299587;28;20222;-48
2023/08/30 01:27:08;;;;;;;1.40;1.30;;;;;;;14.01;95.82;96838.41;6297475;28;20242;-52
2023/08/30 01:30:11;;;;;;;1.40;1.30;;;;;;;13.83;96.29;96831.91;6299311;28;20699;-52
2023/08/30 01:33:17;;;;;;;0.97;0.97;;;;;;;13.78;95.02;96810.53;6300138;28;20214;-49
2023/08/30 01:36:19;;;;;;;1.93;1.33;;;;;;;13.96;95.78;96833.13;6280792;28;20221;-50
2023/08/30 01:39:23;;;;;;;1.20;1.10;;;;;;;13.87;96.70;96843.63;6306665;28;20268;-51
2023/08/30 01:42:26;;;;;;;1.50;1.40;;;;;;;14.11;94.30;96842.88;6304144;28;20249;-51
2023/08/30 01:45:29;;;;;;;1.10;1.00;;;;;;;13.91;96.25;96852.72;6297752;28;20735;-48
2023/08/30 01:48:34;;;;;;;2.17;1.20;;;;;;;13.90;96.74;96848.44;6310172;28;20226;-49
2023/08/30 01:51:37;;;;;;;1.30;1.20;;;;;;;13.84;97.19;96849.59;6299407;28;20233;-51
2023/08/30 01:54:41;;;;;;;1.00;1.00;;;;;;;13.95;95.48;96863.66;6302773;28;20309;-52
2023/08/30 01:57:43;;;;;;;1.00;0.90;;;;;;;13.88;96.23;96860.50;6285825;28;20222;-48
2023/08/30 02:00:45;;;;;;;1.30;1.20;;;;;;;13.86;97.24;96855.44;6288956;28;20234;-51
2023/08/30 02:03:48;;;;;;;1.07;0.97;;;;;;;13.82;99.37;96848.25;6286602;28;20231;-52
2023/08/30 02:06:59;;;;;;;1.30;1.20;;;;;;;13.81;98.95;96842.09;6299614;28;20217;-49
2023/08/30 02:10:06;;;;;;;1.30;1.20;;;;;;;13.80;98.78;96853.91;6304090;28;20231;-50
2023/08/30 02:13:12;;;;;;;1.40;1.30;;;;;;;13.81;98.88;96855.50;6286514;28;20232;-48
2023/08/30 02:16:16;;;;;;;1.87;1.10;;;;;;;13.81;98.70;96852.00;6302903;28;20226;-51
2023/08/30 02:19:21;;;;;;;1.80;1.70;;;;;;;13.80;99.82;96850.44;6299749;28;20229;-47
2023/08/30 02:22:23;;;;;;;2.23;1.47;;;;;;;13.75;98.88;96853.94;6303468;28;20238;-50
2023/08/30 02:25:26;;;;;;;1.20;1.10;;;;;;;13.77;98.90;96857.13;6285051;28;20829;-50
2023/08/30 02:28:29;;;;;;;1.53;1.30;;;;;;;13.74;99.61;96856.88;6305776;28;20797;-49
2023/08/30 02:31:31;;;;;;;1.30;1.20;;;;;;;13.69;100.00;96852.38;6304282;28;20302;-49
2023/08/30 02:34:35;;;;;;;1.50;1.40;;;;;;;13.67;100.00;96846.53;6288716;28;20371;-49
2023/08/30 02:37:39;;;;;;;1.40;1.30;;;;;;;13.65;100.00;96843.34;6315734;28;20718;-48
2023/08/30 02:40:42;;;;;;;1.73;1.37;;;;;;;13.63;100.00;96842.81;6316171;28;20272;-48
2023/08/30 02:43:44;;;;;;;1.40;1.30;;;;;;;13.60;100.00;96846.84;6314946;28;20226;-50
2023/08/30 02:46:46;;;;;;;1.40;1.30;;;;;;;13.58;100.00;96834.81;6314256;28;20283;-48
2023/08/30 02:49:48;;;;;;;1.20;1.07;;;;;;;13.57;100.00;96842.06;6316101;28;20237;-50
2023/08/30 02:52:52;;;;;;;1.10;1.10;;;;;;;13.56;100.00;96837.00;6308207;28;20233;-47
2023/08/30 02:55:55;;;;;;;1.10;1.00;;;;;;;13.55;100.00;96827.38;6310859;28;20214;-49
2023/08/30 02:58:57;;;;;;;1.10;1.10;;;;;;;13.51;100.00;96824.44;6298740;28;20236;-51
2023/08/30 03:01:59;;;;;;;0.83;0.83;;;;;;;13.50;100.00;96817.50;6317000;28;20229;-50
2023/08/30 03:05:04;;;;;;;1.00;1.00;;;;;;;13.55;100.00;96824.69;6313366;28;20234;-49
2023/08/30 03:08:06;;;;;;;0.90;0.80;;;;;;;13.57;100.00;96822.53;6295873;28;20236;-48
2023/08/30 03:11:13;;;;;;;1.30;1.20;;;;;;;13.66;99.45;96810.13;6312933;28;20235;-49
2023/08/30 03:14:21;;;;;;;1.00;0.90;;;;;;;13.62;98.72;96807.22;6315474;28;20235;-50
2023/08/30 03:17:24;;;;;;;0.90;0.90;;;;;;;13.58;99.42;96800.81;6318850;28;20220;-51
2023/08/30 03:20:28;;;;;;;0.80;0.80;;;;;;;13.55;99.25;96809.44;6313973;28;20253;-53
2023/08/30 03:23:32;;;;;;;0.80;0.80;;;;;;;13.57;98.73;96804.59;6295900;28;20226;-51
2023/08/30 03:26:34;;;;;;;1.03;0.80;;;;;;;13.76;96.77;96803.88;6312656;28;20363;-51
2023/08/30 03:29:37;;;;;;;1.00;0.90;;;;;;;13.63;98.08;96792.75;6316729;28;20232;-52
2023/08/30 03:32:39;;;;;;;1.03;0.93;;;;;;;13.41;100.00;96800.47;6315318;28;20639;-48
2023/08/30 03:35:42;;;;;;;1.20;1.10;;;;;;;13.38;100.00;96812.50;6283021;28;20252;-52
2023/08/30 03:38:45;;;;;;;1.33;1.00;;;;;;;13.46;100.00;96811.13;6285366;28;20320;-49
2023/08/30 03:41:47;;;;;;;1.93;1.00;;;;;;;13.40;100.00;96815.72;6301722;28;20324;-50
2023/08/30 03:44:50;;;;;;;2.77;1.07;;;;;;;13.39;100.00;96813.31;6304069;28;20706;-49
2023/08/30 03:47:52;;;;;;;2.83;1.13;;;;;;;13.40;100.00;96815.72;6281949;28;20229;-49
2023/08/30 03:50:55;;;;;;;1.43;1.20;;;;;;;13.45;100.00;96822.09;6257067;28;20237;-49
2023/08/30 03:53:57;;;;;;;1.60;1.50;;;;;;;13.60;99.29;96814.75;6302956;27;20263;-50
2023/08/30 03:56:59;;;;;;;2.70;1.60;;;;;;;13.62;98.47;96817.91;6251717;28;20228;-51
2023/08/30 04:00:03;;;;;;;1.50;1.40;;;;;;;13.46;98.99;96807.66;6292766;28;20354;-50
2023/08/30 04:03:15;;;;;;;1.70;1.60;;;;;;;13.66;97.34;96816.28;6301743;28;20236;-52
2023/08/30 04:06:18;;;;;;;2.10;1.90;;;;;;;13.54;98.80;96817.72;6300642;28;20206;-51
2023/08/30 04:09:24;;;;;;;2.03;1.73;;;;;;;13.53;99.23;96818.81;6302048;28;20755;-49
2023/08/30 04:12:26;;;;;;;1.77;1.67;;;;;;;13.62;96.83;96812.56;6299474;28;20322;-51
2023/08/30 04:15:28;;;;;;;1.70;1.60;;;;;;;13.59;98.16;96809.66;6279928;28;20359;-50
2023/08/30 04:18:30;;;;;;;2.03;1.87;;;;;;;13.74;96.13;96806.03;6246831;28;20341;-52
2023/08/30 04:21:33;;;;;;;2.20;2.03;;;;;;;13.47;97.63;96793.97;6307495;28;20222;-50
2023/08/30 04:24:35;;;;;;;2.07;1.97;;;;;;;13.73;96.21;96820.50;6299206;28;20233;-49
2023/08/30 04:27:37;;;;;;;1.73;1.63;;;;;;;13.63;97.33;96818.72;6302334;28;20319;-51
2023/08/30 04:30:40;;;;;;;1.90;1.70;;;;;;;13.57;97.85;96815.28;6297649;28;20363;-48
2023/08/30 04:33:43;;;;;;;1.90;1.80;;;;;;;13.58;98.70;96816.09;6301799;28;20245;-51
2023/08/30 04:36:45;;;;;;;2.97;2.10;;;;;;;13.69;96.52;96817.59;6293985;28;20220;-49
2023/08/30 04:39:49;;;;;;;2.10;1.90;;;;;;;13.76;96.17;96820.75;6326106;28;20251;-51
2023/08/30 04:42:51;;;;;;;2.00;1.90;;;;;;;13.70;96.59;96829.91;6324968;28;20225;-51
2023/08/30 04:45:53;;;;;;;2.40;2.20;;;;;;;13.73;96.19;96828.53;6306887;28;20236;-51
2023/08/30 04:48:57;;;;;;;2.63;2.20;;;;;;;13.64;97.30;96831.84;6310728;28;20240;-50
2023/08/30 04:51:59;;;;;;;2.00;1.90;;;;;;;13.59;97.94;96831.84;6327610;28;20229;-51
2023/08/30 04:55:03;;;;;;;1.97;1.80;;;;;;;13.67;97.55;96831.25;6302102;28;20320;-50
2023/08/30 04:58:05;;;;;;;2.00;1.87;;;;;;;13.68;97.09;96827.50;6327665;28;20718;-51
2023/08/30 05:01:11;;;;;;;1.90;1.80;;;;;;;13.60;98.47;96836.16;6313121;28;20225;-52
2023/08/30 05:04:14;;;;;;;2.20;1.77;;;;;;;13.68;97.23;96848.09;6327204;28;20233;-48
2023/08/30 05:07:17;;;;;;;2.00;1.90;;;;;;;13.61;97.34;96845.78;6237346;28;20229;-50
2023/08/30 05:10:20;;;;;;;4.40;2.17;;;;;;;13.57;98.29;96842.06;6326103;28;20217;-49
2023/08/30 05:13:26;;;;;;;2.17;1.87;;;;;;;13.62;97.44;96846.56;6329960;28;20235;-49
2023/08/30 05:16:28;;;;;;;2.20;2.00;;;;;;;13.60;97.92;96854.88;6320338;28;20264;-49
2023/08/30 05:19:30;;;;;;;2.10;2.00;;;;;;;13.58;98.98;96867.72;6337470;28;20229;-51
2023/08/30 05:22:33;;;;;;;2.47;1.73;;;;;;;13.64;97.38;96876.50;6309546;28;20233;-51
2023/08/30 05:25:35;;;;;;;2.67;1.87;;;;;;;13.65;97.49;96878.94;6326455;28;20239;-50
2023/08/30 05:28:37;;;;;;;2.13;2.03;;;;;;;13.69;96.59;96876.47;6319122;28;20413;-52
2023/08/30 05:31:41;;;;;;;2.27;2.10;;;;;;;13.79;95.93;96872.91;6303612;28;20244;-48
2023/08/30 05:35:07;;;;;;;2.30;2.10;;;;;;;13.73;95.86;96872.16;6238793;28;20332;-50
2023/08/30 05:38:35;;;;;;;1.87;1.77;;;;;;;13.73;96.79;96874.03;6288226;28;20252;-48
2023/08/30 05:42:00;;;;;;;1.83;1.73;;;;;;;13.68;97.44;96875.66;6313185;28;20246;-51
2023/08/30 05:45:03;;;;;;;2.10;1.90;;;;;;;13.68;96.96;96870.31;6314983;28;20246;-50
2023/08/30 05:48:06;;;;;;;2.17;2.07;;;;;;;13.70;96.97;96877.28;6314660;28;20299;-48
2023/08/30 05:51:09;;;;;;;2.60;2.00;;;;;;;13.73;96.80;96869.47;6318854;28;20226;-51
2023/08/30 05:54:11;;;;;;;2.00;1.80;;;;;;;13.74;97.82;96878.31;6302426;28;20217;-52
2023/08/30 05:57:13;;;;;;;1.83;1.73;;;;;;;13.89;95.07;96878.16;6314325;28;20341;-49
2023/08/30 06:00:16;;;;;;;2.30;2.10;;;;;;;13.86;95.73;96884.09;6304202;28;20213;-49
2023/08/30 06:03:18;;;;;;;1.97;1.87;;;;;;;13.99;93.53;96886.13;6298174;28;20682;-51
2023/08/30 06:06:20;;;;;;;2.33;2.23;;;;;;;13.96;93.68;96886.66;6313102;28;20221;-52
2023/08/30 06:09:23;;;;;;;2.10;2.00;;;;;;;13.94;94.87;96888.84;6315583;28;20229;-48
2023/08/30 06:12:25;;;;;;;2.17;1.97;;;;;;;13.90;94.89;96896.63;6319284;28;20228;-51
2023/08/30 06:15:28;;;;;;;2.23;2.10;;;;;;;13.92;95.14;96899.03;6308982;28;20229;-49
2023/08/30 06:18:34;;;;;;;2.50;2.30;;;;;;;13.70;94.75;96870.06;6317427;28;20278;-48
2023/08/30 06:21:36;;;;;;;2.63;2.10;;;;;;;13.88;95.48;96903.34;6316555;28;20662;-51
2023/08/30 06:24:38;;;;;;;2.33;2.13;;;;;;;13.94;94.49;96900.34;6318369;28;20237;-51
2023/08/30 06:27:56;;;;;;;2.50;2.30;;;;;;;14.00;93.81;96897.63;6317476;28;20714;-51
2023/08/30 06:30:58;;;;;;;1.93;1.83;;;;;;;14.08;93.14;96888.97;6312408;28;20234;-52
2023/08/30 06:34:00;;;;;;;2.20;2.10;;;;;;;14.07;94.53;96903.44;6314386;28;20225;-49
2023/08/30 06:37:03;;;;;;;2.33;2.10;;;;;;;14.32;90.83;96889.78;6319712;28;20316;-50
2023/08/30 06:40:06;;;;;;;2.50;2.30;;;;;;;14.19;92.39;96906.53;6328151;28;20226;-49
2023/08/30 06:43:08;;;;;;;2.23;2.07;;;;;;;14.14;93.68;96893.19;6330025;28;20286;-50
2023/08/30 06:46:10;;;;;;;2.30;2.20;;;;;;;14.18;93.85;96892.31;6312956;28;20638;-48
2023/08/30 06:49:13;;;;;;;2.33;2.13;;;;;;;14.29;93.12;96905.63;6330260;28;20233;-52
2023/08/30 06:52:15;;;;;;;4.13;2.33;;;;;;;14.50;89.70;96900.88;6332472;28;20721;-52
2023/08/30 06:55:17;;;;;;;2.10;2.00;;;;;;;14.51;91.18;96905.94;6319401;28;20229;-51
2023/08/30 06:58:20;;;;;;;2.33;2.13;;;;;;;14.67;91.47;96899.31;6329839;28;20729;-50
2023/08/30 07:01:22;;;;;;;2.40;2.20;;;;;;;14.92;87.32;96902.75;6329796;28;20319;-50
2023/08/30 07:04:24;;;;;;;2.10;2.00;;;;;;;14.96;89.46;96909.13;6328027;28;20229;-51
2023/08/30 07:07:27;;;;;;;2.23;2.03;;;;;;;15.13;86.93;96903.28;6328665;28;20224;-51
2023/08/30 07:10:29;;;;;;;2.13;1.93;;;;;;;15.27;86.90;96901.47;6328503;28;20638;-51
2023/08/30 07:13:31;;;;;;;2.23;2.10;;;;;;;15.42;85.68;96901.25;6328376;28;20385;-52
2023/08/30 07:16:33;;;;;;;1.70;1.60;;;;;;;15.41;82.81;96898.84;6328856;28;20236;-53
2023/08/30 07:19:36;;;;;;;1.70;1.60;;;;;;;15.42;84.49;96882.47;6328632;28;20857;-52
2023/08/30 07:22:38;;;;;;;1.80;1.70;;;;;;;15.55;82.81;96888.94;6334604;28;20644;-51
2023/08/30 07:25:40;;;;;;;1.73;1.63;;;;;;;15.63;80.59;96874.06;6329137;28;20237;-51
2023/08/30 07:28:42;;;;;;;1.60;1.50;;;;;;;15.58;82.13;96884.91;6328366;28;20236;-52
2023/08/30 07:31:44;;;;;;;1.40;1.30;;;;;;;15.49;81.19;96887.44;6329013;28;20266;-52
2023/08/30 07:34:47;;;;;;;1.37;1.27;;;;;;;15.53;81.45;96871.56;6326439;28;20272;-52
2023/08/30 07:37:49;;;;;;;1.33;1.23;;;;;;;15.59;81.29;96873.06;6303091;28;20230;-50
2023/08/30 07:40:51;;;;;;;1.77;1.40;;;;;;;15.63;80.47;96874.06;6313208;28;20239;-53
2023/08/30 07:43:54;;;;;;;1.33;1.30;;;;;;;15.70;79.67;96888.72;6315269;28;20599;-52
2023/08/30 07:46:56;;;;;;;1.80;1.70;;;;;;;15.65;79.08;96888.03;6311386;28;20225;-52
2023/08/30 07:49:58;;;;;;;1.30;1.20;;;;;;;15.70;79.01;96880.69;6314642;28;20625;-52
2023/08/30 07:53:01;;;;;;;1.47;1.20;;;;;;;15.69;80.46;96891.72;6317591;28;20232;-52
2023/08/30 07:56:03;;;;;;;1.30;1.20;;;;;;;15.80;80.26;96897.72;6313245;28;20228;-50
2023/08/30 07:59:05;;;;;;;1.37;1.27;;;;;;;15.96;78.83;96888.31;6310887;28;20221;-52
2023/08/30 08:02:08;;;;;;;0.90;0.90;;;;;;;16.00;76.11;96881.25;6313094;28;20229;-50
2023/08/30 08:05:10;;;;;;;1.07;1.07;;;;;;;15.91;77.60;96899.94;6309802;28;20233;-52
2023/08/30 08:08:12;;;;;;;2.03;0.90;;;;;;;15.95;78.30;96900.94;6308313;28;20230;-53
2023/08/30 08:11:15;;;;;;;1.33;1.23;;;;;;;16.02;76.87;96915.88;6312422;28;20240;-52
2023/08/30 08:14:17;;;;;;;0.90;0.90;;;;;;;16.05;77.14;96913.38;6291784;28;20236;-51
2023/08/30 08:17:20;;;;;;;1.00;1.00;;;;;;;16.15;76.56;96915.91;6312918;28;20232;-52
2023/08/30 08:20:23;;;;;;;0.83;0.83;;;;;;;16.09;76.10;96921.66;6315073;28;20846;-53
2023/08/30 08:23:25;;;;;;;0.80;0.80;;;;;;;16.04;76.21;96922.53;6312344;28;20217;-53
2023/08/30 08:26:28;;;;;;;0.77;0.70;;;;;;;16.15;76.26;96923.16;6310539;28;20216;-51
2023/08/30 08:29:30;;;;;;;1.00;0.80;;;;;;;16.11;76.64;96927.56;6309364;28;20233;-52
2023/08/30 08:32:33;;;;;;;0.70;0.70;;;;;;;16.09;75.88;96922.47;6312430;28;20279;-50
2023/08/30 08:35:35;;;;;;;0.60;0.60;;;;;;;16.14;77.10;96932.31;6312955;28;20372;-51
2023/08/30 08:38:38;;;;;;;1.67;0.90;;;;;;;16.31;77.31;96929.88;6314542;28;20220;-52
2023/08/30 08:41:42;;;;;;;0.53;0.53;;;;;;;16.62;74.69;96938.16;6309018;28;20237;-53
2023/08/30 08:44:48;;;;;;;0.70;0.67;;;;;;;16.46;73.31;96931.47;6310336;28;20253;-51
2023/08/30 08:47:51;;;;;;;0.50;0.50;;;;;;;16.31;75.24;96929.09;6312991;28;20233;-53
2023/08/30 08:50:55;;;;;;;0.70;0.70;;;;;;;16.24;76.07;96934.81;6307497;28;20255;-52
2023/08/30 08:54:02;;;;;;;0.90;0.90;;;;;;;16.48;74.06;96931.97;6304575;28;20801;-51
2023/08/30 08:57:08;;;;;;;1.13;1.03;;;;;;;16.50;74.38;96935.16;6311730;28;20316;-53
2023/08/30 09:00:11;;;;;;;1.17;0.80;;;;;;;16.59;72.69;96936.06;6314163;28;20244;-52
2023/08/30 09:03:14;;;;;;;1.00;0.93;;;;;;;16.43;73.35;96924.78;6311478;28;20694;-53
2023/08/30 09:06:18;;;;;;;0.70;0.70;;;;;;;16.52;74.48;96947.22;6310391;28;20222;-49
2023/08/30 09:09:21;;;;;;;0.90;0.90;;;;;;;16.65;73.16;96944.81;6313128;28;20234;-52
2023/08/30 09:12:23;;;;;;;0.80;0.80;;;;;;;16.73;72.22;96942.25;6310832;28;20224;-53
2023/08/30 09:15:33;;;;;;;0.97;0.80;;;;;;;16.57;73.14;96950.91;6309828;28;20294;-52
2023/08/30 09:18:35;;;;;;;0.80;0.80;;;;;;;16.71;71.65;96954.41;6307139;28;20221;-52
2023/08/30 09:21:37;;;;;;;0.73;0.73;;;;;;;16.66;73.63;96955.28;6309202;28;20222;-51
2023/08/30 09:24:40;;;;;;;0.70;0.70;;;;;;;16.93;71.32;96945.63;6313924;28;20500;-51
2023/08/30 09:27:42;;;;;;;0.80;0.80;;;;;;;16.98;72.56;96964.38;6290390;28;20319;-53
2023/08/30 09:30:50;;;;;;;1.03;0.70;;;;;;;16.85;71.71;96963.28;6310485;28;20309;-51
2023/08/30 09:33:58;;;;;;;0.90;0.90;;;;;;;16.72;71.14;96959.50;6307006;28;20225;-49
2023/08/30 09:37:02;;;;;;;0.70;0.70;;;;;;;16.45;73.65;96967.50;6311860;28;20229;-51
2023/08/30 09:40:08;;;;;;;0.70;0.70;;;;;;;16.33;74.02;96980.63;6310426;28;20233;-53
2023/08/30 09:43:11;;;;;;;0.80;0.80;;;;;;;16.27;75.03;96982.63;6309614;28;20225;-52
2023/08/30 09:46:15;;;;;;;2.50;0.90;;;;;;;16.23;75.69;96990.47;6315794;28;20228;-52
2023/08/30 09:49:24;;;;;;;1.03;1.03;;;;;;;16.21;75.43;96981.13;6309792;28;20348;-52
2023/08/30 09:52:30;;;;;;;0.90;0.90;;;;;;;16.32;77.42;96984.44;6310987;28;20230;-53
2023/08/30 09:55:33;;;;;;;1.80;0.90;;;;;;;16.40;75.66;96986.41;6298834;28;20282;-51
2023/08/30 09:58:38;;;;;;;1.23;0.90;;;;;;;16.51;74.43;96991.34;6316398;28;20282;-52
2023/08/30 10:01:41;;;;;;;1.13;1.03;;;;;;;16.42;72.07;96976.97;6313259;28;20598;-53
2023/08/30 10:04:46;;;;;;;0.97;0.97;;;;;;;16.49;71.97;96987.31;6319339;28;20593;-52
2023/08/30 10:07:49;;;;;;;2.90;0.90;;;;;;;16.26;74.29;96983.72;6316661;28;20258;-50
2023/08/30 10:10:51;;;;;;;1.00;1.00;;;;;;;16.18;75.67;96992.44;6318115;28;20319;-50
2023/08/30 10:13:55;;;;;;;1.00;0.90;;;;;;;16.20;75.49;96987.56;6314319;28;20229;-53
2023/08/30 10:17:07;;;;;;;1.17;1.10;;;;;;;16.15;75.55;96982.28;6316006;28;20221;-53
2023/08/30 10:20:10;;;;;;;0.97;0.97;;;;;;;16.13;75.23;96996.00;6309856;28;20323;-51
2023/08/30 10:23:13;;;;;;;1.10;1.00;;;;;;;16.05;75.28;96999.38;6302635;28;20283;-52
2023/08/30 10:26:17;;;;;;;0.97;0.97;;;;;;;16.14;76.85;96986.06;6315288;28;20233;-52
2023/08/30 10:29:21;;;;;;;0.93;0.93;;;;;;;16.05;77.17;96985.13;6311560;28;20233;-52
2023/08/30 10:32:23;;;;;;;1.40;1.30;;;;;;;16.38;74.31;96975.16;6313928;28;20316;-53
2023/08/30 10:35:25;;;;;;;1.00;1.00;;;;;;;16.26;74.53;96967.59;6321122;28;20327;-52
2023/08/30 10:38:28;;;;;;;1.60;1.13;;;;;;;16.28;75.21;96965.41;6328467;28;20209;-51
2023/08/30 10:41:30;;;;;;;0.90;0.90;;;;;;;16.22;75.28;96966.59;6330061;28;20241;-52
2023/08/30 10:44:33;;;;;;;1.20;1.10;;;;;;;16.21;75.74;96968.47;6327002;28;20637;-53
2023/08/30 10:47:38;;;;;;;1.20;1.10;;;;;;;16.12;75.11;96969.44;6329344;28;20217;-52
2023/08/30 10:50:41;;;;;;;0.80;0.80;;;;;;;16.05;76.46;96969.00;6329797;28;20232;-51
2023/08/30 10:53:43;;;;;;;1.10;1.00;;;;;;;16.20;76.39;96969.56;6328518;28;20236;-51
2023/08/30 10:56:58;;;;;;;0.90;0.90;;;;;;;16.27;77.58;96968.38;6328495;28;20274;-53
2023/08/30 11:00:18;;;;;;;1.93;1.03;;;;;;;16.20;75.98;96966.06;6326599;28;20312;-51
2023/08/30 11:03:20;;;;;;;1.30;1.00;;;;;;;16.27;75.45;96973.75;6325811;28;20233;-51
2023/08/30 11:06:23;;;;;;;1.17;1.07;;;;;;;16.37;73.87;96963.63;6321193;28;20224;-51
2023/08/30 11:09:25;;;;;;;2.03;1.10;;;;;;;16.45;75.11;96964.81;6327162;28;20229;-51
2023/08/30 11:12:29;;;;;;;0.90;0.90;;;;;;;16.47;74.31;96968.81;6328317;28;20221;-53
2023/08/30 11:15:32;;;;;;;0.90;0.90;;;;;;;16.32;74.60;96968.31;6307133;28;20224;-50
2023/08/30 11:18:39;;;;;;;2.23;1.00;;;;;;;16.23;75.55;96965.50;6329098;28;20595;-51
2023/08/30 11:21:44;;;;;;;1.00;1.00;;;;;;;16.24;75.17;96961.69;6323250;28;20229;-51
2023/08/30 11:24:51;;;;;;;1.07;1.07;;;;;;;16.45;73.81;96968.31;6328356;28;20835;-51
2023/08/30 11:28:03;;;;;;;0.90;0.90;;;;;;;16.41;74.99;96955.78;6328396;28;20221;-50
2023/08/30 11:31:05;;;;;;;1.50;1.00;;;;;;;16.55;75.89;96970.03;6326898;28;20229;-50
2023/08/30 11:34:07;;;;;;;0.90;0.90;;;;;;;16.55;74.45;96972.72;6326355;28;20253;-53
2023/08/30 11:37:09;;;;;;;1.10;0.90;;;;;;;16.57;74.24;96978.59;6315357;28;20239;-52
2023/08/30 11:40:12;;;;;;;1.40;0.90;;;;;;;16.54;72.26;96975.69;6320979;28;20229;-52
2023/08/30 11:43:15;;;;;;;1.10;0.90;;;;;;;16.41;73.24;96980.75;6316121;28;22337;-52
2023/08/30 11:46:18;;;;;;;0.70;0.70;;;;;;;16.30;75.08;96975.84;6293346;28;21041;-51
2023/08/30 11:49:20;;;;;;;1.43;0.97;;;;;;;16.32;75.43;96974.47;6314793;28;20423;-52
2023/08/30 11:52:24;;;;;;;1.20;0.87;;;;;;;16.37;77.85;96984.34;6310462;28;20585;-52
2023/08/30 11:55:26;;;;;;;1.13;1.03;;;;;;;16.42;77.62;96974.28;6313188;28;20612;-52
2023/08/30 11:58:33;;;;;;;0.80;0.80;;;;;;;16.52;76.01;96974.09;6313371;28;20233;-53
2023/08/30 12:01:35;;;;;;;1.40;1.10;;;;;;;16.50;76.76;96979.00;6314950;28;20714;-52
2023/08/30 12:04:42;;;;;;;1.20;1.10;;;;;;;16.42;76.73;96982.34;6309975;28;20285;-49
2023/08/30 12:07:46;;;;;;;1.30;1.20;;;;;;;16.31;77.88;96980.94;6314090;28;20228;-52
2023/08/30 12:10:49;;;;;;;1.47;1.37;;;;;;;16.23;78.86;96965.50;6319068;28;20236;-52
2023/08/30 12:13:51;;;;;;;1.00;1.00;;;;;;;16.24;79.76;96988.56;6307996;28;20278;-52
2023/08/30 12:16:53;;;;;;;1.23;1.13;;;;;;;16.17;81.08;96988.97;6313660;28;20233;-51
2023/08/30 12:19:58;;;;;;;1.40;1.30;;;;;;;16.20;81.67;96987.56;6313133;28;20235;-52
2023/08/30 12:23:03;;;;;;;1.00;1.00;;;;;;;16.36;79.49;96988.13;6310010;28;20225;-50
2023/08/30 12:26:06;;;;;;;2.30;1.20;;;;;;;16.36;80.74;96990.81;6311154;28;20643;-52
2023/08/30 12:29:08;;;;;;;1.50;1.40;;;;;;;16.32;78.64;96987.91;6309092;28;20228;-52
2023/08/30 12:32:10;;;;;;;1.93;1.23;;;;;;;16.22;79.37;96983.50;6311593;28;20344;-52
2023/08/30 12:35:13;;;;;;;1.40;1.30;;;;;;;16.08;80.71;96958.50;6317114;28;20235;-49
2023/08/30 12:38:18;;;;;;;1.20;1.10;;;;;;;16.27;81.11;96974.56;6323469;28;20213;-52
2023/08/30 12:41:23;;;;;;;1.63;1.27;;;;;;;16.55;76.87;96980.78;6328308;28;20378;-50
2023/08/30 12:44:25;;;;;;;1.40;1.30;;;;;;;16.54;77.27;96981.06;6323270;28;20275;-50
2023/08/30 12:47:27;;;;;;;1.73;1.20;;;;;;;16.72;77.64;96966.78;6326813;28;20225;-52
2023/08/30 12:50:31;;;;;;;1.13;1.00;;;;;;;16.83;77.99;96968.16;6325286;28;20236;-51
2023/08/30 12:53:33;;;;;;;1.80;1.40;;;;;;;16.94;73.21;96972.22;6316403;28;20224;-54
2023/08/30 12:56:35;;;;;;;1.70;1.60;;;;;;;16.83;72.96;96970.84;6329769;28;20364;-51
2023/08/30 12:59:38;;;;;;;1.20;1.10;;;;;;;16.64;75.09;96978.97;6330039;28;20229;-53
2023/08/30 13:02:40;;;;;;;1.17;1.07;;;;;;;16.47;76.69;96943.81;6331088;28;20235;-52
2023/08/30 13:05:42;;;;;;;1.40;1.30;;;;;;;16.84;74.00;96971.66;6332536;28;20297;-53
2023/08/30 13:08:45;;;;;;;1.20;1.10;;;;;;;16.62;75.19;96972.31;6330051;28;20259;-52
2023/08/30 13:11:47;;;;;;;1.13;1.03;;;;;;;16.49;77.08;96976.56;6331471;28;20240;-52
2023/08/30 13:14:49;;;;;;;1.13;1.03;;;;;;;16.46;76.02;96967.22;6307444;28;20225;-52
2023/08/30 13:17:52;;;;;;;1.03;1.00;;;;;;;16.48;75.98;96970.41;6325935;28;20967;-49
2023/08/30 13:20:55;;;;;;;1.20;1.10;;;;;;;16.57;77.27;96961.66;6325412;28;20252;-52
2023/08/30 13:23:57;;;;;;;1.33;1.23;;;;;;;16.69;76.67;96967.31;6326025;28;20228;-51
2023/08/30 13:27:00;;;;;;;0.83;0.83;;;;;;;16.83;74.81;96978.91;6323237;28;20237;-50
2023/08/30 13:30:02;;;;;;;1.80;1.10;;;;;;;16.79;76.49;96977.91;6325145;28;20593;-51
2023/08/30 13:33:05;;;;;;;1.20;1.10;;;;;;;16.83;74.45;96975.44;6331587;28;20322;-51
2023/08/30 13:36:07;;;;;;;2.30;1.30;;;;;;;16.89;74.13;96982.31;6320401;28;20227;-52
2023/08/30 13:39:09;;;;;;;1.30;1.20;;;;;;;16.81;73.52;96973.06;6317739;28;20241;-53
2023/08/30 13:42:12;;;;;;;1.13;1.03;;;;;;;16.81;75.72;96985.72;6319195;28;20286;-52
2023/08/30 13:45:15;;;;;;;2.77;1.40;;;;;;;16.70;74.83;96982.41;6314636;28;20231;-53
2023/08/30 13:48:19;;;;;;;1.50;1.40;;;;;;;16.75;74.11;96993.09;6313541;28;20251;-54
2023/08/30 13:51:23;;;;;;;1.10;1.00;;;;;;;16.60;75.28;96986.06;6313475;28;20313;-54
2023/08/30 13:54:26;;;;;;;1.30;1.00;;;;;;;16.35;76.57;96990.00;6317512;28;20225;-51
2023/08/30 13:57:28;;;;;;;1.17;1.10;;;;;;;16.24;77.88;96997.44;6315810;28;20695;-54
2023/08/30 14:00:31;;;;;;;2.00;1.20;;;;;;;16.10;79.60;96999.28;6301077;28;20225;-52
2023/08/30 14:03:33;;;;;;;1.53;1.43;;;;;;;16.02;80.58;96996.50;6312045;28;20272;-52
2023/08/30 14:06:35;;;;;;;1.47;1.10;;;;;;;15.95;81.50;96988.78;6297616;28;20247;-51
2023/08/30 14:09:38;;;;;;;1.23;1.13;;;;;;;15.90;81.33;96994.25;6316328;28;20248;-50
2023/08/30 14:12:41;;;;;;;1.47;1.37;;;;;;;15.84;82.64;96993.53;6308448;28;20279;-53
2023/08/30 14:15:43;;;;;;;1.63;1.27;;;;;;;15.82;80.54;96992.22;6315355;28;20236;-53
2023/08/30 14:18:45;;;;;;;1.23;1.13;;;;;;;15.84;81.18;96993.53;6327737;28;20257;-53
2023/08/30 14:21:48;;;;;;;1.87;1.10;;;;;;;15.89;81.69;97000.72;6316353;28;20236;-53